Time;durP1;ratioP1;P1;durP2;ratioP2;P2;SDS_P1;SDS_P2;PMS_P1;PMS_P2;Temp;Humidity;BMP_temperature;BMP_pressure;BME280_temperature;BME280_humidity;BME280_pressure;Samples;Min_cycle;Max_cycle;Signal;HPM_P1;HPM_P2
2023/05/16 00:00:36;;;;;;;28.98;13.48;;;;;;;15.51;71.94;99604.38;4937356;28;20074;-92
2023/05/16 00:03:04;;;;;;;28.55;13.48;;;;;;;15.52;71.95;99606.06;4950723;28;20058;-92
2023/05/16 00:05:31;;;;;;;29.50;14.05;;;;;;;15.44;72.63;99599.88;4939954;28;20137;-93
2023/05/16 00:07:58;;;;;;;25.90;13.98;;;;;;;15.41;72.57;99601.06;4937341;28;20131;-93
2023/05/16 00:10:25;;;;;;;28.88;13.20;;;;;;;15.39;72.63;99606.59;4953598;28;20054;-92
2023/05/16 00:12:52;;;;;;;25.50;12.98;;;;;;;15.40;72.75;99607.44;4919264;28;20054;-91
2023/05/16 00:15:19;;;;;;;23.88;13.55;;;;;;;15.43;72.47;99609.75;4936311;28;20054;-92
2023/05/16 00:17:46;;;;;;;27.10;13.57;;;;;;;15.45;72.31;99606.91;4937625;28;20043;-93
2023/05/16 00:20:16;;;;;;;28.02;14.60;;;;;;;15.43;72.30;99604.41;4932337;28;20445;-92
2023/05/16 00:22:43;;;;;;;26.15;13.82;;;;;;;15.42;72.21;99605.44;4931844;28;20138;-92
2023/05/16 00:25:10;;;;;;;26.60;13.38;;;;;;;15.40;72.51;99604.75;4954264;28;20043;-92
2023/05/16 00:27:36;;;;;;;29.35;14.75;;;;;;;15.41;72.53;99614.44;4935355;28;20054;-93
2023/05/16 00:30:04;;;;;;;23.23;13.32;;;;;;;15.26;72.62;99603.63;4954367;28;20063;-92
2023/05/16 00:32:31;;;;;;;27.00;13.68;;;;;;;15.34;72.63;99606.28;4935546;28;20043;-93
2023/05/16 00:34:59;;;;;;;24.33;13.88;;;;;;;15.32;72.49;99610.97;4901730;28;20042;-92
2023/05/16 00:37:26;;;;;;;25.27;13.40;;;;;;;15.27;72.84;99607.16;4942400;28;20094;-93
2023/05/16 00:39:53;;;;;;;26.77;13.77;;;;;;;15.31;72.66;99611.13;4942308;28;20499;-92
2023/05/16 00:42:20;;;;;;;30.35;13.95;;;;;;;15.38;72.26;99610.28;4903185;28;20047;-93
2023/05/16 00:44:47;;;;;;;23.67;13.60;;;;;;;15.36;72.17;99603.41;4931211;28;20053;-93
2023/05/16 00:47:14;;;;;;;23.08;13.55;;;;;;;15.29;72.74;99599.75;4936719;28;22299;-92
2023/05/16 00:49:41;;;;;;;23.65;13.23;;;;;;;15.19;72.92;99603.47;4936148;28;20035;-93
2023/05/16 00:52:08;;;;;;;24.42;13.10;;;;;;;15.12;73.04;99609.69;4947420;28;20051;-93
2023/05/16 00:54:35;;;;;;;26.60;13.88;;;;;;;15.07;73.45;99602.16;4935506;28;20130;-93
2023/05/16 00:57:03;;;;;;;28.50;14.20;;;;;;;15.07;73.06;99604.00;4939760;28;20054;-93
2023/05/16 00:59:30;;;;;;;29.70;14.40;;;;;;;15.05;73.03;99598.00;4937732;28;20495;-93
2023/05/16 01:01:57;;;;;;;33.20;14.43;;;;;;;15.15;73.09;99598.63;4956993;28;20500;-91
2023/05/16 01:04:24;;;;;;;31.60;14.48;;;;;;;15.04;73.23;99601.69;4948506;28;20039;-93
2023/05/16 01:06:54;;;;;;;28.73;15.00;;;;;;;15.13;72.53;99603.31;4919248;28;20368;-92
2023/05/16 01:09:22;;;;;;;29.15;15.88;;;;;;;15.05;73.07;99600.66;4927357;28;20043;-92
2023/05/16 01:12:13;;;;;;;30.05;15.77;;;;;;;14.97;73.32;99602.34;4936837;28;20471;-93
2023/05/16 01:15:03;;;;;;;29.30;14.73;;;;;;;14.84;73.79;99598.53;4933129;28;20051;-93
2023/05/16 01:17:59;;;;;;;28.10;15.35;;;;;;;14.98;73.12;99601.38;4947119;28;20051;-93
2023/05/16 01:21:12;;;;;;;33.90;17.10;;;;;;;14.73;74.50;99603.22;4943712;28;20042;-93
2023/05/16 01:24:10;;;;;;;30.63;16.08;;;;;;;14.77;74.04;99606.38;4919484;28;20043;-92
2023/05/16 01:26:36;;;;;;;30.70;15.40;;;;;;;14.94;73.54;99605.38;4934350;28;20568;-93
2023/05/16 01:29:06;;;;;;;31.17;14.90;;;;;;;14.99;73.20;99602.19;4910811;28;20039;-93
2023/05/16 01:31:34;;;;;;;36.17;15.38;;;;;;;14.97;73.38;99609.53;4937465;28;20051;-92
2023/05/16 01:34:01;;;;;;;29.30;14.75;;;;;;;15.01;73.34;99597.50;4949227;28;20407;-92
2023/05/16 01:36:35;;;;;;;29.50;14.20;;;;;;;14.93;73.58;99608.19;4916792;28;20050;-93
2023/05/16 01:39:32;;;;;;;24.55;14.02;;;;;;;14.91;74.26;99603.03;4942941;28;20051;-92
2023/05/16 01:42:05;;;;;;;31.27;14.10;;;;;;;14.88;74.10;99611.41;4950874;28;20443;-93
2023/05/16 01:44:45;;;;;;;27.90;14.98;;;;;;;14.73;74.53;99605.03;4963263;28;20043;-93
2023/05/16 01:47:15;;;;;;;35.10;15.93;;;;;;;14.93;73.98;99605.53;4936929;28;20566;-92
2023/05/16 01:49:50;;;;;;;36.97;16.98;;;;;;;14.83;74.52;99602.19;4921212;28;20447;-92
2023/05/16 01:52:27;;;;;;;34.03;15.95;;;;;;;14.76;74.23;99597.53;4937951;28;20070;-93
2023/05/16 01:54:55;;;;;;;29.02;15.18;;;;;;;14.93;73.81;99603.72;4923831;28;20133;-93
2023/05/16 01:57:25;;;;;;;33.00;16.38;;;;;;;14.92;74.17;99601.19;4969904;28;20364;-92
2023/05/16 01:59:52;;;;;;;38.95;18.42;;;;;;;14.95;73.62;99600.84;4922524;28;20038;-92
2023/05/16 02:02:19;;;;;;;33.80;16.38;;;;;;;14.96;73.69;99598.03;4935487;28;20130;-92
2023/05/16 02:04:46;;;;;;;38.40;17.25;;;;;;;14.92;73.81;99601.19;4928143;28;20047;-93
2023/05/16 02:07:14;;;;;;;38.38;17.75;;;;;;;14.88;73.83;99602.53;4939559;28;20130;-92
2023/05/16 02:09:43;;;;;;;42.08;18.13;;;;;;;15.01;73.30;99605.53;4968804;28;20050;-93
2023/05/16 02:12:10;;;;;;;51.78;21.33;;;;;;;14.96;72.88;99606.03;4954250;28;20058;-93
2023/05/16 02:14:37;;;;;;;46.30;20.15;;;;;;;14.92;72.88;99612.72;4936488;28;20039;-92
2023/05/16 02:17:05;;;;;;;42.05;17.70;;;;;;;14.91;73.19;99605.72;4935130;28;20051;-93
2023/05/16 02:19:32;;;;;;;34.90;16.05;;;;;;;14.97;73.31;99617.56;4923543;28;20039;-93
2023/05/16 02:21:59;;;;;;;37.25;16.75;;;;;;;14.85;73.76;99613.56;4953608;28;20051;-93
2023/05/16 02:24:26;;;;;;;37.30;16.42;;;;;;;14.90;73.46;99609.38;4940725;28;20043;-93
2023/05/16 02:26:54;;;;;;;41.38;17.48;;;;;;;14.84;74.01;99607.38;4944870;28;20454;-93
2023/05/16 02:29:21;;;;;;;46.88;18.13;;;;;;;14.91;73.39;99605.72;4954814;28;20051;-93
2023/05/16 02:31:48;;;;;;;49.70;19.23;;;;;;;14.95;73.00;99612.38;4937332;28;20043;-93
2023/05/16 02:34:15;;;;;;;43.13;19.25;;;;;;;14.89;73.20;99612.22;4937548;28;20063;-93
2023/05/16 02:36:42;;;;;;;43.33;17.55;;;;;;;14.88;73.26;99610.53;4926518;28;20486;-93
2023/05/16 02:39:10;;;;;;;46.10;19.52;;;;;;;14.83;73.07;99626.25;4941836;28;20050;-93
2023/05/16 02:41:36;;;;;;;38.22;18.23;;;;;;;14.68;73.73;99621.59;4935994;28;20043;-93
2023/05/16 02:44:03;;;;;;;35.65;16.83;;;;;;;14.68;74.58;99624.28;4944769;28;20047;-93
2023/05/16 02:46:33;;;;;;;38.35;16.60;;;;;;;14.64;74.55;99624.78;4952612;28;20479;-93
2023/05/16 02:49:00;;;;;;;34.95;16.33;;;;;;;14.71;74.37;99629.28;4904830;28;20043;-93
2023/05/16 02:51:27;;;;;;;31.58;15.85;;;;;;;14.66;74.60;99630.78;4939767;28;20077;-93
2023/05/16 02:53:58;;;;;;;31.90;15.98;;;;;;;14.62;74.69;99624.09;4936937;28;20050;-92
2023/05/16 02:56:26;;;;;;;52.20;22.20;;;;;;;14.88;72.51;99624.78;4921400;28;20521;-93
2023/05/16 02:58:53;;;;;;;36.63;15.98;;;;;;;14.80;73.09;99626.59;4937136;28;20577;-93
2023/05/16 03:01:20;;;;;;;37.47;17.30;;;;;;;14.69;73.77;99630.44;4940173;28;20051;-93
2023/05/16 03:03:47;;;;;;;37.50;17.13;;;;;;;14.77;73.76;99625.94;4939496;28;20042;-93
2023/05/16 03:06:15;;;;;;;38.45;17.33;;;;;;;14.67;74.34;99619.91;4935242;28;20046;-92
2023/05/16 03:08:41;;;;;;;40.92;18.92;;;;;;;14.65;74.50;99624.59;4949974;28;20981;-93
2023/05/16 03:11:08;;;;;;;41.22;17.85;;;;;;;14.73;74.16;99613.06;4906465;28;20054;-92
2023/05/16 03:13:35;;;;;;;44.15;17.88;;;;;;;14.80;74.27;99626.59;4954529;28;20051;-93
2023/05/16 03:16:02;;;;;;;54.53;22.23;;;;;;;14.79;74.34;99619.59;4952129;28;20055;-93
2023/05/16 03:18:29;;;;;;;47.38;20.40;;;;;;;14.82;73.88;99625.44;4914804;28;20047;-93
2023/05/16 03:20:57;;;;;;;49.92;20.65;;;;;;;14.79;73.84;99628.44;4913274;28;20059;-86
2023/05/16 03:23:23;;;;;;;44.17;19.75;;;;;;;14.82;74.10;99628.09;4973745;28;20039;-86
2023/05/16 03:25:50;;;;;;;44.88;19.08;;;;;;;14.79;74.42;99628.44;4953235;28;20053;-86
2023/05/16 03:28:19;;;;;;;59.05;23.73;;;;;;;14.84;73.68;99634.13;4930997;28;20047;-85
2023/05/16 03:30:46;;;;;;;57.35;23.17;;;;;;;14.82;73.79;99635.28;4951954;28;20129;-86
2023/05/16 03:33:13;;;;;;;53.92;21.63;;;;;;;14.77;73.91;99631.28;4967672;28;20051;-85
2023/05/16 03:35:40;;;;;;;54.63;22.67;;;;;;;14.77;74.18;99627.78;4949392;28;20059;-86
2023/05/16 03:38:07;;;;;;;50.28;20.23;;;;;;;14.79;74.14;99633.78;4966856;28;20074;-85
2023/05/16 03:40:34;;;;;;;56.40;23.00;;;;;;;14.78;74.55;99632.09;4954930;28;20078;-86
2023/05/16 03:43:00;;;;;;;52.05;21.88;;;;;;;14.77;74.89;99636.63;4945527;28;20043;-86
2023/05/16 03:45:28;;;;;;;51.50;22.02;;;;;;;14.79;74.80;99635.63;4939821;28;20097;-86
2023/05/16 03:47:56;;;;;;;58.88;24.23;;;;;;;14.73;74.83;99642.47;4947021;28;20043;-85
2023/05/16 03:50:23;;;;;;;51.65;20.85;;;;;;;14.74;74.93;99642.31;4918253;28;20051;-87
2023/05/16 03:52:50;;;;;;;46.85;19.67;;;;;;;14.70;75.46;99648.16;4942376;28;20039;-86
2023/05/16 03:55:17;;;;;;;54.10;21.52;;;;;;;14.73;75.08;99648.66;4928789;28;20073;-85
2023/05/16 03:57:45;;;;;;;53.47;21.42;;;;;;;14.71;75.45;99648.00;4948571;28;20058;-85
2023/05/16 04:00:12;;;;;;;46.42;19.98;;;;;;;14.78;75.10;99653.47;4917665;28;20049;-85
2023/05/16 04:02:39;;;;;;;47.78;21.58;;;;;;;14.73;75.34;99654.00;4952184;28;20102;-85
2023/05/16 04:05:08;;;;;;;50.03;21.83;;;;;;;14.73;75.00;99651.34;4962341;28;20450;-85
2023/05/16 04:07:38;;;;;;;49.70;20.67;;;;;;;14.74;75.32;99654.84;4949678;28;20047;-86
2023/05/16 04:10:05;;;;;;;48.08;20.77;;;;;;;14.75;75.38;99664.50;4933177;28;20113;-85
2023/05/16 04:12:32;;;;;;;45.67;20.58;;;;;;;14.77;75.14;99659.84;4900646;28;20058;-85
2023/05/16 04:14:58;;;;;;;46.65;18.83;;;;;;;14.80;75.24;99666.69;4929393;28;20058;-86
2023/05/16 04:17:25;;;;;;;46.25;20.08;;;;;;;14.73;75.75;99669.19;4918340;28;20784;-85
2023/05/16 04:19:52;;;;;;;39.70;18.27;;;;;;;14.72;75.92;99680.91;4939216;28;20039;-85
2023/05/16 04:22:21;;;;;;;42.40;19.15;;;;;;;14.77;75.93;99678.56;4933621;28;20058;-85
2023/05/16 04:24:48;;;;;;;41.25;19.42;;;;;;;14.77;76.32;99675.88;4945784;28;20045;-85
2023/05/16 04:27:15;;;;;;;48.85;19.98;;;;;;;14.83;76.18;99688.56;4950584;28;20102;-86
2023/05/16 04:29:41;;;;;;;48.38;21.30;;;;;;;14.83;76.12;99685.06;4951022;28;20051;-86
2023/05/16 04:32:09;;;;;;;49.55;20.58;;;;;;;14.77;76.51;99692.75;4928922;28;20047;-86
2023/05/16 04:34:36;;;;;;;61.55;23.63;;;;;;;14.76;76.35;99680.41;4929093;28;20405;-85
2023/05/16 04:37:06;;;;;;;62.88;26.77;;;;;;;14.88;74.65;99693.41;4935323;28;20106;-85
2023/05/16 04:39:34;;;;;;;74.15;27.13;;;;;;;14.92;73.32;99698.28;4931082;28;20057;-85
2023/05/16 04:42:02;;;;;;;85.25;30.77;;;;;;;14.94;73.18;99696.28;4915766;28;20459;-85
2023/05/16 04:44:29;;;;;;;103.75;32.70;;;;;;;14.91;73.51;99698.47;4966406;28;20058;-84
2023/05/16 04:46:56;;;;;;;92.88;32.00;;;;;;;14.85;74.15;99701.78;4947386;28;20050;-85
2023/05/16 04:49:23;;;;;;;92.28;31.88;;;;;;;14.86;74.14;99706.16;4956982;28;20391;-85
2023/05/16 04:51:50;;;;;;;94.07;32.05;;;;;;;14.79;74.21;99703.28;4932360;28;20051;-84
2023/05/16 04:54:16;;;;;;;98.57;30.90;;;;;;;14.74;74.74;99703.78;4915658;28;20403;-86
2023/05/16 04:56:43;;;;;;;101.07;33.63;;;;;;;14.64;75.23;99707.63;4934729;28;20051;-86
2023/05/16 04:59:10;;;;;;;91.68;29.17;;;;;;;14.69;75.39;99713.31;4949782;28;20051;-85
2023/05/16 05:01:37;;;;;;;103.25;34.25;;;;;;;14.58;76.16;99710.94;4940368;28;20074;-87
2023/05/16 05:04:03;;;;;;;92.85;33.05;;;;;;;14.41;77.26;99716.22;4933936;28;20051;-86
2023/05/16 05:06:30;;;;;;;96.80;32.67;;;;;;;14.42;77.13;99717.06;4952721;28;20086;-86
2023/05/16 05:08:57;;;;;;;88.15;29.85;;;;;;;14.50;76.65;99723.28;4945046;28;20131;-85
2023/05/16 05:11:26;;;;;;;87.75;31.33;;;;;;;14.43;77.76;99724.91;4932028;28;20043;-87
2023/05/16 05:13:52;;;;;;;96.00;31.73;;;;;;;14.41;77.85;99718.06;4931228;28;20487;-86
2023/05/16 05:16:19;;;;;;;93.57;31.75;;;;;;;14.48;77.12;99724.44;4930776;28;20054;-85
2023/05/16 05:18:48;;;;;;;93.60;30.55;;;;;;;14.40;77.98;99732.41;4939720;28;20070;-86
2023/05/16 05:21:15;;;;;;;98.18;31.45;;;;;;;14.33;77.91;99729.56;4950524;28;20038;-85
2023/05/16 05:23:42;;;;;;;97.03;30.83;;;;;;;14.36;78.11;99733.75;4930910;28;20079;-86
2023/05/16 05:26:08;;;;;;;91.30;30.38;;;;;;;14.29;78.32;99733.53;4949559;28;20057;-85
2023/05/16 05:28:36;;;;;;;88.60;29.13;;;;;;;14.28;78.89;99734.56;4947486;28;20047;-85
2023/05/16 05:31:07;;;;;;;95.45;31.17;;;;;;;14.30;78.87;99736.06;4950655;28;20051;-85
2023/05/16 05:33:33;;;;;;;93.82;30.15;;;;;;;14.31;78.91;99747.56;4934616;28;20078;-85
2023/05/16 05:36:00;;;;;;;91.18;30.58;;;;;;;14.31;78.88;99743.06;4946448;28;20616;-86
2023/05/16 05:38:29;;;;;;;85.15;30.00;;;;;;;14.19;79.44;99746.19;4927872;28;20103;-86
2023/05/16 05:40:56;;;;;;;89.30;29.00;;;;;;;14.15;79.78;99752.88;4933910;28;20051;-84
2023/05/16 05:43:23;;;;;;;96.50;30.73;;;;;;;14.10;79.66;99748.00;4948093;28;20554;-85
2023/05/16 05:45:50;;;;;;;104.28;30.85;;;;;;;14.02;80.43;99746.16;4949778;28;20035;-86
2023/05/16 05:48:16;;;;;;;103.28;31.80;;;;;;;14.06;80.30;99744.81;4935040;28;20503;-85
2023/05/16 05:50:43;;;;;;;95.05;30.33;;;;;;;14.04;80.36;99744.16;4916222;28;20047;-85
2023/05/16 05:53:10;;;;;;;89.57;29.38;;;;;;;13.98;81.01;99743.94;4936651;28;20134;-86
2023/05/16 05:55:36;;;;;;;78.60;27.58;;;;;;;14.07;80.31;99751.00;4964926;28;20048;-86
2023/05/16 05:58:03;;;;;;;94.35;30.63;;;;;;;13.98;80.67;99767.97;4930546;28;20055;-85
2023/05/16 06:00:32;;;;;;;94.35;32.80;;;;;;;14.01;79.79;99762.31;4949531;28;20126;-84
2023/05/16 06:02:59;;;;;;;90.95;30.85;;;;;;;14.02;80.32;99764.84;4933205;28;20064;-85
2023/05/16 06:05:26;;;;;;;78.82;28.88;;;;;;;14.05;79.79;99764.50;4942956;28;20120;-85
2023/05/16 06:07:53;;;;;;;82.72;28.08;;;;;;;14.07;79.64;99772.38;4946191;28;20486;-85
2023/05/16 06:10:20;;;;;;;90.30;29.73;;;;;;;14.07;80.53;99777.72;4946037;28;20047;-85
2023/05/16 06:12:47;;;;;;;99.30;30.48;;;;;;;14.14;80.29;99783.22;4943104;28;20038;-85
2023/05/16 06:15:13;;;;;;;105.38;32.15;;;;;;;14.19;79.18;99771.06;4945328;28;20043;-84
2023/05/16 06:17:40;;;;;;;93.53;30.10;;;;;;;14.19;79.20;99773.72;4961440;28;20043;-84
2023/05/16 06:20:07;;;;;;;96.90;30.90;;;;;;;14.24;78.83;99768.75;4948394;28;20077;-83
2023/05/16 06:22:34;;;;;;;99.25;32.20;;;;;;;14.22;79.47;99769.91;4952599;28;20633;-86
2023/05/16 06:25:01;;;;;;;103.55;32.75;;;;;;;14.19;80.06;99771.06;4953489;28;20102;-85
2023/05/16 06:27:28;;;;;;;103.85;32.05;;;;;;;14.27;79.89;99778.28;4952291;28;20043;-85
2023/05/16 06:29:55;;;;;;;98.90;32.33;;;;;;;14.25;79.73;99773.09;4954657;28;20049;-86
2023/05/16 06:32:21;;;;;;;101.72;32.78;;;;;;;14.19;80.98;99776.41;4937173;28;20058;-85
2023/05/16 06:34:48;;;;;;;105.82;32.10;;;;;;;14.18;81.40;99779.25;4935722;28;20039;-85
2023/05/16 06:37:15;;;;;;;104.95;34.63;;;;;;;14.18;82.29;99785.44;4939424;28;20048;-84
2023/05/16 06:39:41;;;;;;;117.63;35.33;;;;;;;14.21;82.56;99784.25;4951074;28;20059;-87
2023/05/16 06:42:09;;;;;;;109.32;35.15;;;;;;;14.22;82.58;99788.59;4934820;28;20495;-86
2023/05/16 06:44:36;;;;;;;113.35;34.03;;;;;;;14.33;81.86;99780.31;4955449;28;20051;-87
2023/05/16 06:47:03;;;;;;;104.50;32.38;;;;;;;14.28;82.44;99778.13;4949108;28;20384;-87
2023/05/16 06:49:30;;;;;;;103.63;32.47;;;;;;;14.26;82.82;99784.63;4971556;28;20043;-86
2023/05/16 06:51:57;;;;;;;110.90;34.72;;;;;;;14.27;84.31;99789.81;4937579;28;20049;-86
2023/05/16 06:54:24;;;;;;;110.93;32.55;;;;;;;14.27;84.66;99788.94;4954514;28;20079;-86
2023/05/16 06:56:50;;;;;;;104.45;32.13;;;;;;;14.26;84.38;99787.28;4918968;28;20043;-88
2023/05/16 06:59:17;;;;;;;103.45;32.45;;;;;;;14.32;83.97;99783.97;4935809;28;20043;-86
2023/05/16 07:01:44;;;;;;;110.70;32.65;;;;;;;14.32;84.63;99792.84;4949571;28;20402;-87
2023/05/16 07:04:11;;;;;;;95.00;30.83;;;;;;;14.32;84.95;99795.50;4952484;28;20051;-87
2023/05/16 07:06:38;;;;;;;104.80;35.10;;;;;;;14.32;85.36;99790.16;4938232;28;20051;-86
2023/05/16 07:09:04;;;;;;;115.10;33.40;;;;;;;14.34;85.82;99793.50;4951124;28;20046;-86
2023/05/16 07:11:31;;;;;;;103.00;33.22;;;;;;;14.33;85.46;99793.66;4954040;28;20045;-87
2023/05/16 07:13:58;;;;;;;114.32;33.35;;;;;;;14.36;84.96;99797.84;4936005;28;20050;-85
2023/05/16 07:16:27;;;;;;;115.22;34.35;;;;;;;14.39;85.43;99798.34;4951011;28;20053;-86
2023/05/16 07:18:54;;;;;;;122.40;35.78;;;;;;;14.42;85.15;99799.88;4938238;28;20043;-85
2023/05/16 07:21:21;;;;;;;120.40;35.72;;;;;;;14.41;85.98;99803.56;4936941;28;20431;-86
2023/05/16 07:23:47;;;;;;;130.80;37.08;;;;;;;14.44;86.44;99800.56;4948924;28;20058;-89
2023/05/16 07:26:15;;;;;;;122.95;35.33;;;;;;;14.43;86.31;99799.72;4956470;28;20047;-88
2023/05/16 07:28:44;;;;;;;121.80;35.08;;;;;;;14.44;86.62;99800.56;4936502;28;20122;-87
2023/05/16 07:31:11;;;;;;;129.20;38.13;;;;;;;14.53;86.25;99799.63;4947350;28;20071;-86
2023/05/16 07:33:37;;;;;;;128.13;36.70;;;;;;;14.50;86.21;99798.09;4968858;28;20781;-86
2023/05/16 07:36:05;;;;;;;124.50;38.97;;;;;;;14.53;85.30;99805.81;4952236;28;20063;-86
2023/05/16 07:38:42;;;;;;;140.38;39.00;;;;;;;14.56;84.46;99807.31;4954327;28;20047;-87
2023/05/16 07:41:09;;;;;;;132.77;35.80;;;;;;;14.63;82.97;99804.81;4951772;28;20046;-85
2023/05/16 07:43:36;;;;;;;143.50;37.55;;;;;;;14.58;82.71;99809.78;4948476;28;20042;-87
2023/05/16 07:46:04;;;;;;;131.25;36.80;;;;;;;14.60;81.34;99813.16;4931017;28;20047;-85
2023/05/16 07:48:31;;;;;;;131.77;36.15;;;;;;;14.51;81.07;99814.94;4936139;28;20051;-87
2023/05/16 07:50:57;;;;;;;135.95;37.75;;;;;;;14.53;81.14;99812.97;4953815;28;20112;-86
2023/05/16 07:53:24;;;;;;;127.68;37.30;;;;;;;14.50;80.93;99811.44;4950438;28;20066;-88
2023/05/16 07:55:51;;;;;;;134.23;37.10;;;;;;;14.48;81.73;99817.94;4937582;28;20046;-87
2023/05/16 07:58:18;;;;;;;128.48;34.67;;;;;;;14.41;80.32;99815.06;4948810;28;25438;-89
2023/05/16 08:00:45;;;;;;;119.72;33.65;;;;;;;14.41;80.01;99823.09;4946755;28;20034;-88
2023/05/16 08:03:12;;;;;;;126.85;33.38;;;;;;;14.46;80.34;99823.44;4919548;28;20055;-87
2023/05/16 08:05:39;;;;;;;125.20;35.72;;;;;;;14.47;80.92;99829.59;4932843;28;20058;-87
2023/05/16 08:08:06;;;;;;;134.68;35.03;;;;;;;14.49;80.24;99827.63;4934782;28;20055;-87
2023/05/16 08:10:33;;;;;;;121.18;32.33;;;;;;;14.46;79.81;99830.63;4938175;28;20047;-88
2023/05/16 08:13:00;;;;;;;115.05;33.72;;;;;;;14.44;80.07;99827.25;4924489;28;20137;-89
2023/05/16 08:15:26;;;;;;;126.75;33.47;;;;;;;14.42;79.96;99830.09;4951755;28;20058;-87
2023/05/16 08:17:57;;;;;;;127.25;33.30;;;;;;;14.46;79.86;99842.13;4932322;28;20114;-87
2023/05/16 08:20:25;;;;;;;111.20;29.40;;;;;;;14.46;79.76;99831.44;4944173;28;20387;-88
2023/05/16 08:22:51;;;;;;;112.25;29.75;;;;;;;14.38;79.56;99830.59;4917671;28;20133;-87
2023/05/16 08:25:19;;;;;;;109.88;29.75;;;;;;;14.43;79.64;99831.78;4951398;28;20058;-87
2023/05/16 08:27:48;;;;;;;120.15;30.23;;;;;;;14.45;79.49;99832.47;4931755;28;20078;-87
2023/05/16 08:30:15;;;;;;;101.47;29.67;;;;;;;14.44;79.49;99824.59;4923089;28;20051;-87
2023/05/16 08:32:42;;;;;;;108.88;28.35;;;;;;;14.39;80.04;99827.75;4932659;28;20921;-87
2023/05/16 08:35:10;;;;;;;105.22;28.48;;;;;;;14.42;80.55;99826.59;4953425;28;20055;-87
2023/05/16 08:37:36;;;;;;;106.97;30.67;;;;;;;14.47;79.93;99827.75;4940332;28;20043;-86
2023/05/16 08:40:07;;;;;;;104.97;29.85;;;;;;;14.37;79.59;99826.22;4935841;28;20059;-86
2023/05/16 08:42:34;;;;;;;96.47;24.83;;;;;;;14.41;79.82;99827.59;4918143;28;20054;-86
2023/05/16 08:45:01;;;;;;;104.20;26.52;;;;;;;14.40;80.23;99842.78;4914465;28;20055;-86
2023/05/16 08:47:30;;;;;;;95.05;26.42;;;;;;;14.40;79.87;99828.56;4949688;28;20051;-87
2023/05/16 08:49:57;;;;;;;97.90;28.73;;;;;;;14.41;80.28;99832.94;4910127;28;20559;-86
2023/05/16 08:52:30;;;;;;;102.70;27.83;;;;;;;14.34;80.01;99836.22;4934808;28;20062;-89
2023/05/16 08:54:58;;;;;;;99.40;26.40;;;;;;;14.37;80.71;99826.22;4897021;28;20058;-86
2023/05/16 08:57:37;;;;;;;95.32;25.35;;;;;;;14.32;81.26;99821.34;4933754;28;20503;-88
2023/05/16 09:00:10;;;;;;;87.05;23.17;;;;;;;14.39;80.98;99834.94;4929063;28;20122;-87
2023/05/16 09:02:43;;;;;;;100.15;24.50;;;;;;;14.36;81.82;99832.59;4917035;28;20432;-88
2023/05/16 09:05:12;;;;;;;86.77;25.37;;;;;;;14.45;80.76;99834.28;4950928;28;20491;-88
2023/05/16 09:07:40;;;;;;;97.63;24.60;;;;;;;14.40;80.48;99834.78;4951776;28;20050;-87
2023/05/16 09:10:07;;;;;;;84.70;21.75;;;;;;;14.35;80.63;99842.44;4893062;28;20052;-86
2023/05/16 09:12:34;;;;;;;82.20;23.17;;;;;;;14.36;80.86;99849.44;4947452;28;20046;-86
2023/05/16 09:15:03;;;;;;;80.15;22.45;;;;;;;14.28;81.43;99850.25;4929812;28;20051;-86
2023/05/16 09:17:37;;;;;;;71.68;20.65;;;;;;;14.23;81.24;99849.88;4942799;28;20050;-88
2023/05/16 09:20:20;;;;;;;59.15;17.92;;;;;;;14.19;80.36;99850.34;4950827;28;20050;-89
2023/05/16 09:22:54;;;;;;;79.38;21.92;;;;;;;14.20;81.41;99857.38;4933987;28;20053;-89
2023/05/16 09:25:23;;;;;;;66.60;18.58;;;;;;;14.23;80.64;99859.72;4931841;28;20047;-89
2023/05/16 09:27:56;;;;;;;57.50;16.75;;;;;;;14.16;80.16;99864.03;4919927;28;20495;-87
2023/05/16 09:30:32;;;;;;;48.03;15.55;;;;;;;13.88;79.55;99861.50;4918261;28;20054;-88
2023/05/16 09:32:59;;;;;;;44.17;14.82;;;;;;;14.01;79.95;99869.09;4946231;28;20575;-89
2023/05/16 09:35:26;;;;;;;51.58;15.38;;;;;;;14.07;80.06;99873.84;4950702;28;20510;-87
2023/05/16 09:38:16;;;;;;;42.60;12.35;;;;;;;14.00;79.77;99873.59;4932885;28;20054;-86
2023/05/16 09:40:43;;;;;;;;;;;;;;;13.91;80.50;99874.53;4941270;28;20147;-86
2023/05/16 09:43:15;;;;;;;39.38;13.82;;;;;;;14.03;79.65;99873.28;4954166;28;19929;-86
2023/05/16 09:45:47;;;;;;;39.17;12.10;;;;;;;14.06;80.00;99885.50;4928036;28;20050;-87
2023/05/16 09:48:14;;;;;;;33.03;11.65;;;;;;;14.10;79.34;99884.19;4949474;28;20046;-86
2023/05/16 09:50:48;;;;;;;43.97;12.10;;;;;;;14.11;78.61;99880.50;4950096;28;20165;-85
2023/05/16 09:53:14;;;;;;;33.88;11.48;;;;;;;14.10;78.13;99892.19;4943779;28;20047;-92
2023/05/16 09:55:41;;;;;;;28.98;9.95;;;;;;;14.12;78.37;99884.88;4916207;28;20051;-90
2023/05/16 09:58:08;;;;;;;29.35;10.48;;;;;;;14.10;78.57;99886.88;4935855;28;20122;-89
2023/05/16 10:00:36;;;;;;;29.67;9.00;;;;;;;14.03;77.83;99880.47;4937678;28;20059;-89
2023/05/16 10:03:03;;;;;;;16.65;7.35;;;;;;;14.11;78.06;99880.50;4968331;28;20055;-87
2023/05/16 10:05:32;;;;;;;25.70;7.95;;;;;;;14.16;78.02;99875.53;4955564;28;20051;-87
2023/05/16 10:08:01;;;;;;;19.70;8.00;;;;;;;14.09;77.18;99886.03;4936272;28;20051;-88
2023/05/16 10:10:28;;;;;;;24.80;9.07;;;;;;;14.12;76.36;99868.84;4954814;28;20546;-87
2023/05/16 10:12:58;;;;;;;17.30;7.15;;;;;;;14.10;76.01;99882.34;4952782;28;20487;-87
2023/05/16 10:15:25;;;;;;;19.42;7.97;;;;;;;14.10;76.60;99871.66;4931573;28;21229;-85
2023/05/16 10:17:55;;;;;;;15.93;7.55;;;;;;;14.12;75.81;99876.88;4952235;28;20054;-87
2023/05/16 10:20:23;;;;;;;18.00;7.55;;;;;;;14.13;76.51;99880.38;4918525;28;20099;-85
2023/05/16 10:22:52;;;;;;;18.92;7.90;;;;;;;14.09;74.78;99880.69;4938096;28;20067;-85
2023/05/16 10:25:28;;;;;;;14.70;7.53;;;;;;;14.01;74.03;99896.63;4953211;28;20495;-86
2023/05/16 10:27:55;;;;;;;18.17;6.95;;;;;;;14.09;74.07;99886.03;4964277;28;20130;-86
2023/05/16 10:30:22;;;;;;;14.18;6.78;;;;;;;14.05;73.52;99884.66;4967780;28;20050;-86
2023/05/16 10:32:50;;;;;;;15.30;6.78;;;;;;;14.11;73.17;99869.84;4954435;28;20055;-87
2023/05/16 10:35:18;;;;;;;15.68;6.57;;;;;;;14.22;74.27;99863.38;4951599;28;20486;-88
2023/05/16 10:37:45;;;;;;;16.33;6.93;;;;;;;14.15;72.16;99862.38;4933839;28;20486;-88
2023/05/16 10:40:12;;;;;;;11.95;6.15;;;;;;;14.15;71.05;99865.03;4932626;28;20049;-86
2023/05/16 10:43:02;;;;;;;15.32;6.32;;;;;;;14.03;70.31;99867.94;4949032;28;20039;-85
2023/05/16 10:45:29;;;;;;;13.77;6.30;;;;;;;14.06;70.40;99877.47;4966319;28;20579;-87
2023/05/16 10:48:08;;;;;;;16.42;6.32;;;;;;;13.93;69.78;99874.38;4950944;28;20447;-85
2023/05/16 10:50:42;;;;;;;15.40;6.30;;;;;;;13.98;70.57;99877.44;4929259;28;20147;-85
2023/05/16 10:53:17;;;;;;;14.15;5.88;;;;;;;13.96;71.32;99880.25;4920018;28;20047;-86
2023/05/16 10:55:50;;;;;;;10.25;5.07;;;;;;;13.83;71.89;99895.84;4935042;28;20055;-88
2023/05/16 10:58:24;;;;;;;11.38;5.57;;;;;;;13.71;71.64;99897.06;4924216;28;21910;-88
2023/05/16 11:01:14;;;;;;;10.38;5.22;;;;;;;13.64;72.42;99900.38;4951991;28;20150;-84
2023/05/16 11:03:59;;;;;;;12.23;6.05;;;;;;;13.64;71.43;99897.69;4954127;28;20047;-85
2023/05/16 11:06:32;;;;;;;12.13;6.53;;;;;;;13.77;72.29;99907.97;4935663;28;20070;-85
2023/05/16 11:09:09;;;;;;;14.65;5.28;;;;;;;13.66;70.87;99919.75;4929284;28;20094;-85
2023/05/16 11:11:43;;;;;;;13.98;4.65;;;;;;;13.64;71.50;99915.53;4927199;28;20058;-84
2023/05/16 11:14:31;;;;;;;18.88;6.85;;;;;;;13.58;70.63;99910.81;4937681;28;20047;-85
2023/05/16 11:16:59;;;;;;;7.78;3.95;;;;;;;13.63;71.01;99913.84;4907966;28;20483;-85
2023/05/16 11:19:41;;;;;;;8.32;3.72;;;;;;;13.72;71.82;99917.44;4948177;28;22373;-85
2023/05/16 11:22:28;;;;;;;9.00;4.72;;;;;;;13.78;71.40;99931.00;4940678;28;20055;-85
2023/05/16 11:24:58;;;;;;;9.15;4.43;;;;;;;13.86;70.46;99920.38;4962029;28;20416;-85